Time;durP1;ratioP1;P1;durP2;ratioP2;P2;SDS_P1;SDS_P2;PMS_P1;PMS_P2;Temp;Humidity;BMP_temperature;BMP_pressure;BME280_temperature;BME280_humidity;BME280_pressure;Samples;Min_cycle;Max_cycle;Signal;HPM_P1;HPM_P2
2023/08/15 00:01:39;;;;;;;3.50;3.20;;;;;;;;;;5095778;28;20409;-86
2023/08/15 00:04:05;;;;;;;3.25;2.80;;;;;;;;;;5082557;28;20380;-87
2023/08/15 00:06:31;;;;;;;3.22;2.85;;;;;;;;;;5075562;28;20502;-86
2023/08/15 00:08:58;;;;;;;3.22;2.92;;;;;;;;;;5074180;28;20511;-87
2023/08/15 00:11:24;;;;;;;2.90;2.70;;;;;;;;;;5078678;28;20389;-86
2023/08/15 00:13:55;;;;;;;4.22;3.20;;;;;;;;;;5082094;28;20719;-87
2023/08/15 00:16:21;;;;;;;3.00;2.80;;;;;;;;;;5087497;28;20956;-86
2023/08/15 00:18:47;;;;;;;3.15;2.83;;;;;;;;;;5087833;28;20422;-86
2023/08/15 00:21:13;;;;;;;3.10;2.90;;;;;;;;;;5090130;28;20410;-86
2023/08/15 00:23:39;;;;;;;3.83;3.53;;;;;;;;;;5096124;28;20883;-86
2023/08/15 00:26:05;;;;;;;3.20;3.00;;;;;;;;;;5096270;28;20410;-86
2023/08/15 00:28:31;;;;;;;3.08;2.88;;;;;;;;;;5095891;28;20839;-86
2023/08/15 00:30:57;;;;;;;3.70;3.40;;;;;;;;;;5090870;28;20492;-86
2023/08/15 00:33:23;;;;;;;3.20;2.90;;;;;;;;;;5090268;28;20823;-86
2023/08/15 00:35:48;;;;;;;3.13;2.90;;;;;;;;;;5081755;28;20390;-86
2023/08/15 00:38:15;;;;;;;3.38;3.08;;;;;;;;;;5090829;28;20439;-86
2023/08/15 00:40:41;;;;;;;3.53;2.92;;;;;;;;;;5082836;28;20378;-87
2023/08/15 00:43:07;;;;;;;3.60;3.30;;;;;;;;;;5095836;28;20427;-86
2023/08/15 00:45:35;;;;;;;3.53;3.17;;;;;;;;;;5081993;28;20405;-86
2023/08/15 00:48:01;;;;;;;3.10;2.90;;;;;;;;;;5096205;28;20450;-86
2023/08/15 00:50:28;;;;;;;3.13;2.83;;;;;;;;;;5074359;28;20390;-86
2023/08/15 00:52:54;;;;;;;3.10;2.90;;;;;;;;;;5096057;28;20476;-86
2023/08/15 00:55:21;;;;;;;3.15;2.85;;;;;;;;;;5085207;28;20395;-86
2023/08/15 00:57:47;;;;;;;3.20;2.83;;;;;;;;;;5093776;28;20396;-86
2023/08/15 01:00:14;;;;;;;3.47;3.10;;;;;;;;;;5096260;28;20477;-87
2023/08/15 01:02:40;;;;;;;3.00;2.80;;;;;;;;;;5094733;28;20385;-86
2023/08/15 01:05:07;;;;;;;3.67;3.38;;;;;;;;;;5083942;28;20398;-87
2023/08/15 01:07:33;;;;;;;3.97;3.03;;;;;;;;;;5082619;28;20396;-86
2023/08/15 01:09:59;;;;;;;3.40;3.10;;;;;;;;;;5078736;28;20852;-87
2023/08/15 01:12:29;;;;;;;3.20;3.00;;;;;;;;;;5077888;28;20380;-87
2023/08/15 01:15:01;;;;;;;3.30;3.00;;;;;;;;;;5080292;28;20804;-87
2023/08/15 01:17:32;;;;;;;3.42;3.13;;;;;;;;;;5079400;28;20387;-87
2023/08/15 01:19:59;;;;;;;3.40;3.05;;;;;;;;;;5084250;28;20394;-87
2023/08/15 01:22:27;;;;;;;3.30;3.00;;;;;;;;;;5088113;28;20403;-87
2023/08/15 01:24:54;;;;;;;3.60;3.30;;;;;;;;;;5079741;28;20439;-87
2023/08/15 01:27:20;;;;;;;3.92;3.63;;;;;;;;;;5079888;28;20403;-87
2023/08/15 01:29:46;;;;;;;3.85;3.60;;;;;;;;;;5079945;28;20385;-86
2023/08/15 01:32:31;;;;;;;3.65;3.35;;;;;;;;;;5079622;28;20401;-87
2023/08/15 01:35:02;;;;;;;3.60;3.30;;;;;;;;;;5093565;28;20380;-87
2023/08/15 01:37:29;;;;;;;3.50;3.20;;;;;;;;;;5093338;28;20397;-86
2023/08/15 01:39:56;;;;;;;3.90;3.60;;;;;;;;;;5086270;28;20856;-87
2023/08/15 01:42:23;;;;;;;3.72;3.17;;;;;;;;;;5087410;28;20390;-86
2023/08/15 01:44:50;;;;;;;4.60;3.13;;;;;;;;;;5085818;28;20403;-86
2023/08/15 01:47:16;;;;;;;3.33;3.03;;;;;;;;;;5077984;28;20376;-86
2023/08/15 01:49:42;;;;;;;3.80;3.47;;;;;;;;;;5086448;28;20382;-87
2023/08/15 01:52:08;;;;;;;3.60;3.30;;;;;;;;;;5082100;28;20450;-87
2023/08/15 01:54:34;;;;;;;3.90;3.60;;;;;;;;;;5078160;28;20433;-86
2023/08/15 01:57:00;;;;;;;3.22;3.03;;;;;;;;;;5077368;28;20379;-86
2023/08/15 01:59:26;;;;;;;3.15;2.95;;;;;;;;;;5098214;28;20761;-86
2023/08/15 02:01:52;;;;;;;3.50;3.30;;;;;;;;;;5086716;28;20380;-86
2023/08/15 02:04:18;;;;;;;3.63;3.33;;;;;;;;;;5081733;28;20386;-86
2023/08/15 02:06:44;;;;;;;4.43;3.50;;;;;;;;;;5071173;28;20395;-87
2023/08/15 02:09:10;;;;;;;3.67;3.38;;;;;;;;;;5092967;28;20386;-87
2023/08/15 02:11:36;;;;;;;3.72;3.33;;;;;;;;;;5060131;28;20388;-86
2023/08/15 02:14:02;;;;;;;3.53;3.22;;;;;;;;;;5083277;28;20474;-86
2023/08/15 02:16:28;;;;;;;4.20;3.80;;;;;;;;;;5063231;28;20801;-87
2023/08/15 02:18:54;;;;;;;4.05;3.70;;;;;;;;;;5078041;28;20392;-86
2023/08/15 02:21:21;;;;;;;4.10;3.80;;;;;;;;;;5081571;28;20390;-86
2023/08/15 02:23:47;;;;;;;3.83;3.53;;;;;;;;;;5083527;28;20396;-86
2023/08/15 02:26:13;;;;;;;3.88;3.58;;;;;;;;;;5077892;28;20781;-87
2023/08/15 02:28:39;;;;;;;3.90;3.60;;;;;;;;;;5086175;28;20382;-86
2023/08/15 02:31:05;;;;;;;4.00;3.70;;;;;;;;;;5097232;28;20393;-87
2023/08/15 02:33:34;;;;;;;4.00;3.70;;;;;;;;;;5079404;28;20374;-86
2023/08/15 02:36:05;;;;;;;3.97;3.47;;;;;;;;;;5077828;28;20382;-86
2023/08/15 02:38:31;;;;;;;4.20;3.80;;;;;;;;;;5085000;28;20382;-86
2023/08/15 02:40:57;;;;;;;3.90;3.60;;;;;;;;;;5097572;28;20404;-86
2023/08/15 02:43:24;;;;;;;4.03;3.63;;;;;;;;;;5094629;28;20394;-86
2023/08/15 02:45:50;;;;;;;4.20;3.90;;;;;;;;;;5086569;28;20909;-87
2023/08/15 02:48:16;;;;;;;4.25;3.85;;;;;;;;;;5083198;28;20390;-86
2023/08/15 02:50:42;;;;;;;3.50;3.28;;;;;;;;;;5097801;28;20390;-86
2023/08/15 02:53:09;;;;;;;3.70;3.50;;;;;;;;;;5097659;28;20381;-86
2023/08/15 02:55:35;;;;;;;3.70;3.40;;;;;;;;;;5097754;28;20382;-86
2023/08/15 02:58:01;;;;;;;4.25;3.80;;;;;;;;;;5097314;28;20382;-86
2023/08/15 03:00:27;;;;;;;4.13;3.65;;;;;;;;;;5094761;28;20402;-86
2023/08/15 03:02:53;;;;;;;3.97;3.67;;;;;;;;;;5077012;28;20391;-86
2023/08/15 03:05:19;;;;;;;3.72;3.42;;;;;;;;;;5076966;28;20419;-86
2023/08/15 03:07:45;;;;;;;4.10;3.80;;;;;;;;;;5078019;28;20380;-86
2023/08/15 03:10:11;;;;;;;4.03;3.70;;;;;;;;;;5084450;28;20391;-86
2023/08/15 03:12:37;;;;;;;4.10;3.80;;;;;;;;;;5090936;28;20438;-86
2023/08/15 03:15:05;;;;;;;3.90;3.60;;;;;;;;;;5081820;28;20371;-87
2023/08/15 03:17:33;;;;;;;3.97;3.67;;;;;;;;;;5093974;28;20382;-86
2023/08/15 03:19:59;;;;;;;4.03;3.70;;;;;;;;;;5072066;28;20789;-87
2023/08/15 03:22:25;;;;;;;4.97;4.17;;;;;;;;;;5087466;28;20432;-87
2023/08/15 03:24:51;;;;;;;4.27;3.77;;;;;;;;;;5083326;28;20411;-86
2023/08/15 03:27:16;;;;;;;6.30;5.70;;;;;;;;;;5096037;28;20393;-87
2023/08/15 03:29:42;;;;;;;5.15;4.75;;;;;;;;;;5089098;28;20366;-86
2023/08/15 03:32:08;;;;;;;4.20;3.90;;;;;;;;;;5098166;28;20736;-86
2023/08/15 03:34:34;;;;;;;4.13;3.83;;;;;;;;;;5085601;28;20414;-86
2023/08/15 03:37:00;;;;;;;4.40;3.83;;;;;;;;;;5095646;28;20504;-85
2023/08/15 03:39:27;;;;;;;3.72;3.50;;;;;;;;;;5098081;28;20385;-87
2023/08/15 03:41:53;;;;;;;3.92;3.63;;;;;;;;;;5096821;28;20397;-86
2023/08/15 03:44:19;;;;;;;3.60;3.40;;;;;;;;;;5098011;28;20386;-86
2023/08/15 03:46:45;;;;;;;4.00;3.70;;;;;;;;;;5098375;28;20429;-86
2023/08/15 03:49:11;;;;;;;4.30;3.90;;;;;;;;;;5093303;28;20386;-86
2023/08/15 03:51:37;;;;;;;3.80;3.50;;;;;;;;;;5098446;28;20396;-86
2023/08/15 03:54:04;;;;;;;3.78;3.58;;;;;;;;;;5077926;28;20379;-87
2023/08/15 03:56:30;;;;;;;4.00;3.50;;;;;;;;;;5091167;28;20846;-87
2023/08/15 03:58:56;;;;;;;4.03;3.72;;;;;;;;;;5093902;28;20380;-87
2023/08/15 04:01:22;;;;;;;4.13;3.83;;;;;;;;;;5088293;28;20731;-86
2023/08/15 04:03:50;;;;;;;4.23;3.83;;;;;;;;;;5098283;28;20434;-87
2023/08/15 04:06:16;;;;;;;4.30;3.90;;;;;;;;;;5098463;28;20867;-86
2023/08/15 04:08:42;;;;;;;4.00;3.70;;;;;;;;;;5083437;28;20394;-86
2023/08/15 04:11:08;;;;;;;3.70;3.40;;;;;;;;;;5091398;28;20384;-86
2023/08/15 04:13:34;;;;;;;4.20;3.80;;;;;;;;;;5077036;28;20395;-86
2023/08/15 04:15:59;;;;;;;3.65;3.45;;;;;;;;;;5076674;28;20380;-87
2023/08/15 04:18:25;;;;;;;5.03;3.90;;;;;;;;;;5086628;28;20705;-86
2023/08/15 04:20:51;;;;;;;4.05;3.75;;;;;;;;;;5082237;28;20472;-86
2023/08/15 04:23:17;;;;;;;3.80;3.50;;;;;;;;;;5076840;28;20396;-87
2023/08/15 04:25:44;;;;;;;4.20;3.90;;;;;;;;;;5088503;28;20411;-86
2023/08/15 04:28:10;;;;;;;4.72;3.92;;;;;;;;;;5094222;28;20405;-87
2023/08/15 04:30:36;;;;;;;4.13;3.83;;;;;;;;;;5082028;28;20390;-86
2023/08/15 04:33:02;;;;;;;4.00;3.70;;;;;;;;;;5095005;28;20409;-86
2023/08/15 04:35:28;;;;;;;4.05;3.78;;;;;;;;;;5083291;28;20382;-86
2023/08/15 04:37:54;;;;;;;4.60;4.20;;;;;;;;;;5091370;28;20836;-86
2023/08/15 04:40:33;;;;;;;4.97;3.92;;;;;;;;;;5091584;28;20399;-86
2023/08/15 04:43:00;;;;;;;4.10;3.80;;;;;;;;;;5089770;28;20393;-86
2023/08/15 04:45:26;;;;;;;4.10;3.80;;;;;;;;;;5057892;28;20408;-86
2023/08/15 04:47:52;;;;;;;4.55;4.15;;;;;;;;;;5085380;28;20390;-86
2023/08/15 04:50:19;;;;;;;5.15;3.72;;;;;;;;;;5094288;28;20443;-86
2023/08/15 04:52:45;;;;;;;4.30;4.00;;;;;;;;;;5077197;28;20390;-86
2023/08/15 04:55:13;;;;;;;4.28;3.90;;;;;;;;;;5077542;28;20379;-86
2023/08/15 04:57:39;;;;;;;4.47;4.07;;;;;;;;;;5096261;28;20381;-87
2023/08/15 05:00:08;;;;;;;4.38;3.97;;;;;;;;;;5083350;28;20387;-86
2023/08/15 05:02:35;;;;;;;4.57;4.18;;;;;;;;;;5082058;28;20427;-86
2023/08/15 05:05:01;;;;;;;4.40;4.05;;;;;;;;;;5095810;28;20413;-86
2023/08/15 05:07:27;;;;;;;4.28;3.97;;;;;;;;;;5092375;28;20399;-87
2023/08/15 05:09:53;;;;;;;4.18;3.78;;;;;;;;;;5069169;28;20378;-86
2023/08/15 05:12:19;;;;;;;4.15;3.85;;;;;;;;;;5083724;28;20768;-86
2023/08/15 05:14:45;;;;;;;4.70;4.30;;;;;;;;;;5097568;28;20386;-87
2023/08/15 05:17:11;;;;;;;4.70;4.40;;;;;;;;;;5087005;28;20410;-86
2023/08/15 05:19:38;;;;;;;4.30;4.00;;;;;;;;;;5095796;28;20393;-87
2023/08/15 05:22:04;;;;;;;4.60;4.20;;;;;;;;;;5083886;28;20797;-87
2023/08/15 05:24:29;;;;;;;4.70;4.30;;;;;;;;;;5091062;28;20408;-84
2023/08/15 05:26:56;;;;;;;4.22;3.92;;;;;;;;;;5084847;28;20439;-86
2023/08/15 05:29:22;;;;;;;4.22;3.83;;;;;;;;;;5076183;28;20856;-87
2023/08/15 05:31:48;;;;;;;4.28;3.97;;;;;;;;;;5077869;28;20396;-87
2023/08/15 05:34:14;;;;;;;4.45;4.05;;;;;;;;;;5086084;28;20388;-87
2023/08/15 05:36:40;;;;;;;4.60;4.20;;;;;;;;;;5076317;28;20426;-87
2023/08/15 05:39:06;;;;;;;4.70;4.30;;;;;;;;;;5094764;28;20382;-87
2023/08/15 05:41:32;;;;;;;4.60;4.30;;;;;;;;;;5082341;28;20418;-87
2023/08/15 05:43:57;;;;;;;5.10;4.57;;;;;;;;;;5089699;28;20403;-84
2023/08/15 05:46:23;;;;;;;4.50;4.10;;;;;;;;;;5092739;28;20418;-87
2023/08/15 05:48:50;;;;;;;4.80;4.45;;;;;;;;;;5096866;28;20423;-87
2023/08/15 05:51:15;;;;;;;4.70;4.30;;;;;;;;;;5067874;28;20457;-87
2023/08/15 05:53:41;;;;;;;4.82;4.43;;;;;;;;;;5092561;28;20831;-87
2023/08/15 05:56:07;;;;;;;4.75;4.35;;;;;;;;;;5092562;28;20390;-87
2023/08/15 05:58:33;;;;;;;4.67;4.30;;;;;;;;;;5088829;28;20477;-87
2023/08/15 06:00:59;;;;;;;4.80;4.40;;;;;;;;;;5094846;28;20814;-87
2023/08/15 06:03:26;;;;;;;5.00;4.60;;;;;;;;;;5094932;28;20379;-87
2023/08/15 06:05:55;;;;;;;5.00;4.50;;;;;;;;;;5096363;28;20895;-87
2023/08/15 06:08:21;;;;;;;4.25;3.95;;;;;;;;;;5099689;28;20389;-87
2023/08/15 06:10:47;;;;;;;4.85;4.45;;;;;;;;;;5098705;28;20393;-86
2023/08/15 06:13:13;;;;;;;4.57;4.18;;;;;;;;;;5089985;28;20446;-87
2023/08/15 06:15:39;;;;;;;5.20;4.57;;;;;;;;;;5078911;28;20423;-86
2023/08/15 06:18:05;;;;;;;4.80;4.40;;;;;;;;;;5080524;28;20416;-86
2023/08/15 06:20:31;;;;;;;4.68;4.28;;;;;;;;;;5095199;28;20438;-87
2023/08/15 06:22:57;;;;;;;5.28;4.78;;;;;;;;;;5083852;28;20464;-87
2023/08/15 06:25:23;;;;;;;4.72;4.32;;;;;;;;;;5098005;28;20414;-86
2023/08/15 06:27:49;;;;;;;4.82;4.43;;;;;;;;;;5083871;28;20465;-87
2023/08/15 06:30:15;;;;;;;5.35;4.85;;;;;;;;;;5081026;28;20702;-86
2023/08/15 06:32:41;;;;;;;5.03;4.63;;;;;;;;;;5079220;28;20379;-86
2023/08/15 06:35:09;;;;;;;5.60;5.07;;;;;;;;;;5077898;28;20382;-85
2023/08/15 06:37:35;;;;;;;5.28;4.80;;;;;;;;;;5088348;28;20382;-87
2023/08/15 06:40:01;;;;;;;4.88;4.57;;;;;;;;;;5089025;28;20819;-87
2023/08/15 06:42:27;;;;;;;5.00;4.60;;;;;;;;;;5097991;28;20382;-85
2023/08/15 06:45:04;;;;;;;5.20;4.70;;;;;;;;;;5085336;28;20476;-85
2023/08/15 06:47:30;;;;;;;4.65;4.30;;;;;;;;;;5079165;28;20395;-86
2023/08/15 06:49:56;;;;;;;5.47;4.85;;;;;;;;;;5092896;28;20382;-86
2023/08/15 06:52:24;;;;;;;5.22;4.72;;;;;;;;;;5099140;28;20389;-86
2023/08/15 06:54:50;;;;;;;5.10;4.70;;;;;;;;;;5099442;28;20385;-86
2023/08/15 06:57:16;;;;;;;5.25;4.82;;;;;;;;;;5097866;28;20410;-86
2023/08/15 06:59:42;;;;;;;5.07;4.63;;;;;;;;;;5099479;28;20420;-85
2023/08/15 07:02:08;;;;;;;6.82;5.38;;;;;;;;;;5098165;28;20413;-86
2023/08/15 07:04:36;;;;;;;4.63;4.32;;;;;;;;;;5099065;28;20394;-85
2023/08/15 07:07:03;;;;;;;4.53;4.22;;;;;;;;;;5098794;28;20397;-86
2023/08/15 07:09:29;;;;;;;4.82;4.38;;;;;;;;;;5073694;28;20384;-85
2023/08/15 07:11:56;;;;;;;5.23;4.83;;;;;;;;;;5091573;28;20460;-87
2023/08/15 07:14:22;;;;;;;5.70;4.97;;;;;;;;;;5098502;28;20386;-86
2023/08/15 07:16:49;;;;;;;6.88;5.13;;;;;;;;;;5091823;28;20387;-85
2023/08/15 07:19:15;;;;;;;5.05;4.72;;;;;;;;;;5077240;28;20857;-86
2023/08/15 07:21:41;;;;;;;5.03;4.55;;;;;;;;;;5084996;28;20406;-86
2023/08/15 07:24:07;;;;;;;4.95;4.57;;;;;;;;;;5082624;28;20417;-86
2023/08/15 07:26:33;;;;;;;5.93;4.88;;;;;;;;;;5085503;28;20429;-86
2023/08/15 07:28:59;;;;;;;7.38;4.97;;;;;;;;;;5097768;28;20382;-86
2023/08/15 07:31:25;;;;;;;8.02;6.03;;;;;;;;;;5083059;28;20447;-86
2023/08/15 07:33:51;;;;;;;6.67;6.07;;;;;;;;;;5079998;28;20432;-85
2023/08/15 07:36:17;;;;;;;11.60;6.78;;;;;;;;;;5097802;28;20839;-86
2023/08/15 07:38:43;;;;;;;6.60;6.00;;;;;;;;;;5083679;28;20393;-86
2023/08/15 07:41:09;;;;;;;5.88;5.40;;;;;;;;;;5094475;28;20810;-83
2023/08/15 07:43:35;;;;;;;6.07;5.50;;;;;;;;;;5085108;28;20384;-83
2023/08/15 07:46:01;;;;;;;7.78;6.05;;;;;;;;;;5079801;28;20441;-83
2023/08/15 07:48:29;;;;;;;6.47;5.88;;;;;;;;;;5079582;28;20414;-83
2023/08/15 07:50:55;;;;;;;6.40;5.90;;;;;;;;;;5069399;28;20408;-83
2023/08/15 07:53:23;;;;;;;5.93;5.43;;;;;;;;;;5085016;28;20390;-83
2023/08/15 07:55:49;;;;;;;6.43;5.82;;;;;;;;;;5086664;28;20847;-83
2023/08/15 07:58:15;;;;;;;5.60;5.20;;;;;;;;;;5083169;28;20395;-83
2023/08/15 08:00:42;;;;;;;6.28;5.68;;;;;;;;;;5085400;28;20407;-84
2023/08/15 08:03:08;;;;;;;6.28;5.68;;;;;;;;;;5083202;28;20379;-83
2023/08/15 08:05:34;;;;;;;5.75;5.25;;;;;;;;;;5077970;28;20433;-83
2023/08/15 08:08:01;;;;;;;6.60;6.00;;;;;;;;;;5087972;28;20930;-84
2023/08/15 08:10:27;;;;;;;6.60;6.00;;;;;;;;;;5097468;28;20374;-82
2023/08/15 08:12:53;;;;;;;6.30;5.63;;;;;;;;;;5068099;28;20402;-83
2023/08/15 08:15:23;;;;;;;6.15;5.63;;;;;;;;;;5085613;28;20415;-83
2023/08/15 08:17:49;;;;;;;5.57;5.18;;;;;;;;;;5082240;28;20924;-83
2023/08/15 08:20:17;;;;;;;6.30;5.80;;;;;;;;;;5089918;28;20393;-83
2023/08/15 08:22:43;;;;;;;6.68;6.18;;;;;;;;;;5092048;28;20392;-82
2023/08/15 08:25:35;;;;;;;5.80;5.30;;;;;;;;;;5090633;28;20927;-83
2023/08/15 08:28:02;;;;;;;6.22;5.65;;;;;;;;;;5084874;28;20396;-82
2023/08/15 08:30:29;;;;;;;6.07;5.53;;;;;;;;;;5098631;28;20385;-83
2023/08/15 08:32:55;;;;;;;6.75;5.70;;;;;;;;;;5088146;28;20886;-83
2023/08/15 08:35:21;;;;;;;5.80;5.20;;;;;;;;;;5082203;28;20388;-84
2023/08/15 08:37:47;;;;;;;6.20;5.63;;;;;;;;;;5089468;28;20396;-84
2023/08/15 08:40:13;;;;;;;5.45;4.88;;;;;;;;;;5095535;28;20381;-83
2023/08/15 08:42:43;;;;;;;5.13;4.77;;;;;;;;;;5098031;28;20378;-83
2023/08/15 08:45:12;;;;;;;5.70;5.10;;;;;;;;;;5095923;28;20948;-85
2023/08/15 08:47:39;;;;;;;5.60;5.20;;;;;;;;;;5074109;28;20378;-84
2023/08/15 08:50:08;;;;;;;5.20;4.80;;;;;;;;;;5083471;28;20738;-84
2023/08/15 08:52:35;;;;;;;5.63;4.85;;;;;;;;;;5077289;28;20387;-84
2023/08/15 08:55:01;;;;;;;5.80;5.20;;;;;;;;;;5077450;28;20407;-84
2023/08/15 08:57:29;;;;;;;5.55;5.00;;;;;;;;;;5082295;28;20391;-84
2023/08/15 08:59:56;;;;;;;5.75;5.22;;;;;;;;;;5071059;28;20380;-84
2023/08/15 09:02:22;;;;;;;5.65;5.20;;;;;;;;;;5081074;28;20523;-84
2023/08/15 09:04:49;;;;;;;5.50;4.90;;;;;;;;;;5078481;28;20498;-84
2023/08/15 09:07:18;;;;;;;5.88;5.38;;;;;;;;;;5085792;28;20393;-84
2023/08/15 09:09:44;;;;;;;5.93;5.35;;;;;;;;;;5090974;28;20379;-84
2023/08/15 09:12:10;;;;;;;5.10;4.80;;;;;;;;;;5076946;28;20375;-84
2023/08/15 09:14:42;;;;;;;4.90;4.40;;;;;;;;;;5077063;28;20522;-84
2023/08/15 09:17:11;;;;;;;5.67;4.93;;;;;;;;;;5084423;28;20387;-84
2023/08/15 09:19:40;;;;;;;5.65;5.18;;;;;;;;;;5094822;28;20386;-84
2023/08/15 09:22:06;;;;;;;5.70;5.20;;;;;;;;;;5092495;28;20465;-84
2023/08/15 09:24:32;;;;;;;6.05;5.30;;;;;;;;;;5093381;28;20413;-84
2023/08/15 09:27:04;;;;;;;5.45;4.95;;;;;;;;;;5094745;28;20390;-84
2023/08/15 09:29:34;;;;;;;6.30;5.65;;;;;;;;;;5077141;28;20371;-84
2023/08/15 09:32:04;;;;;;;6.00;5.40;;;;;;;;;;5076511;28;20457;-83
2023/08/15 09:34:30;;;;;;;5.28;4.88;;;;;;;;;;5089579;28;20421;-84
2023/08/15 09:36:56;;;;;;;5.45;4.80;;;;;;;;;;5096846;28;20382;-84
2023/08/15 09:39:23;;;;;;;5.72;4.82;;;;;;;;;;5096763;28;20926;-84
2023/08/15 09:41:49;;;;;;;6.25;5.13;;;;;;;;;;5095918;28;20447;-83
2023/08/15 09:44:29;;;;;;;5.97;5.38;;;;;;;;;;5091066;28;20413;-83
2023/08/15 09:46:55;;;;;;;5.45;4.95;;;;;;;;;;5097691;28;20462;-83
2023/08/15 09:49:22;;;;;;;5.20;4.75;;;;;;;;;;5099127;28;20382;-83
2023/08/15 09:51:48;;;;;;;5.35;4.85;;;;;;;;;;5098718;28;20409;-83
2023/08/15 09:54:15;;;;;;;4.97;4.57;;;;;;;;;;5100510;28;20439;-83
2023/08/15 09:56:42;;;;;;;5.78;4.90;;;;;;;;;;5100467;28;20389;-83
2023/08/15 09:59:08;;;;;;;5.13;4.63;;;;;;;;;;5085568;28;20731;-83
2023/08/15 10:01:37;;;;;;;7.00;4.47;;;;;;;;;;5100881;28;20380;-83
2023/08/15 10:04:06;;;;;;;4.93;4.38;;;;;;;;;;5081927;28;20813;-83
2023/08/15 10:06:32;;;;;;;5.05;4.63;;;;;;;;;;5086680;28;20406;-83
2023/08/15 10:08:58;;;;;;;4.97;4.53;;;;;;;;;;5089926;28;20383;-83
2023/08/15 10:11:25;;;;;;;5.03;4.30;;;;;;;;;;5095772;28;20386;-84
2023/08/15 10:13:51;;;;;;;5.45;3.95;;;;;;;;;;5087856;28;20394;-83
2023/08/15 10:16:17;;;;;;;5.20;3.85;;;;;;;;;;5087162;28;20743;-83
2023/08/15 10:18:54;;;;;;;5.07;3.80;;;;;;;;;;5089435;28;20411;-83
2023/08/15 10:21:20;;;;;;;6.63;3.67;;;;;;;;;;5098896;28;20386;-84
2023/08/15 10:23:46;;;;;;;4.60;3.80;;;;;;;;;;5096109;28;20378;-82
2023/08/15 10:26:12;;;;;;;4.10;3.28;;;;;;;;;;5080887;28;20400;-82
2023/08/15 10:28:40;;;;;;;5.80;3.60;;;;;;;;;;5079258;28;20471;-82
2023/08/15 10:31:08;;;;;;;3.80;3.40;;;;;;;;;;5080748;28;20394;-83
2023/08/15 10:33:34;;;;;;;5.78;3.53;;;;;;;;;;5098242;28;20386;-82
2023/08/15 10:36:00;;;;;;;6.82;3.65;;;;;;;;;;5099698;28;20382;-83
2023/08/15 10:38:44;;;;;;;5.60;4.10;;;;;;;;;;5088086;28;20382;-83
2023/08/15 10:41:15;;;;;;;6.87;3.57;;;;;;;;;;5069293;28;20888;-83
2023/08/15 10:43:47;;;;;;;4.35;3.67;;;;;;;;;;5097251;28;20382;-84
2023/08/15 10:46:13;;;;;;;4.55;3.47;;;;;;;;;;5100069;28;20421;-84
2023/08/15 10:48:43;;;;;;;5.45;3.20;;;;;;;;;;5096333;28;20794;-83
2023/08/15 10:51:39;;;;;;;5.03;3.35;;;;;;;;;;5079534;28;20384;-83
2023/08/15 10:54:09;;;;;;;5.88;3.17;;;;;;;;;;5069708;28;20392;-83
2023/08/15 10:56:36;;;;;;;3.83;3.40;;;;;;;;;;5087038;28;20800;-83
2023/08/15 10:59:08;;;;;;;4.00;3.55;;;;;;;;;;5099069;28;20378;-83
2023/08/15 11:01:35;;;;;;;3.70;3.40;;;;;;;;;;5099083;28;20393;-83
2023/08/15 11:04:02;;;;;;;3.37;3.00;;;;;;;;;;5095084;28;20752;-83
2023/08/15 11:06:29;;;;;;;5.15;3.00;;;;;;;;;;5090044;28;20416;-83
2023/08/15 11:08:59;;;;;;;4.85;3.10;;;;;;;;;;5099841;28;20386;-83
2023/08/15 11:11:25;;;;;;;3.83;3.05;;;;;;;;;;5101237;28;20390;-83
2023/08/15 11:13:52;;;;;;;5.63;3.22;;;;;;;;;;5086256;28;20525;-83
2023/08/15 11:16:19;;;;;;;4.10;3.17;;;;;;;;;;5098845;28;20389;-83
2023/08/15 11:18:45;;;;;;;4.23;3.37;;;;;;;;;;5081986;28;20384;-83
2023/08/15 11:21:12;;;;;;;3.90;2.80;;;;;;;;;;5099202;28;20390;-83
2023/08/15 11:23:39;;;;;;;5.50;2.83;;;;;;;;;;5089767;28;20436;-83
2023/08/15 11:26:06;;;;;;;4.82;2.95;;;;;;;;;;5092682;28;20423;-83
2023/08/15 11:28:33;;;;;;;3.25;2.70;;;;;;;;;;5079953;28;20448;-83
2023/08/15 11:30:59;;;;;;;4.55;2.97;;;;;;;;;;5080813;28;20386;-83
2023/08/15 11:33:28;;;;;;;4.55;3.38;;;;;;;;;;5097866;28;20913;-83
2023/08/15 11:35:54;;;;;;;4.32;3.03;;;;;;;;;;5098603;28;20835;-83
2023/08/15 11:38:20;;;;;;;4.28;3.33;;;;;;;;;;5096215;28;20394;-83
2023/08/15 11:40:47;;;;;;;5.53;3.67;;;;;;;;;;5087277;28;20380;-83
2023/08/15 11:43:13;;;;;;;4.10;3.22;;;;;;;;;;5098933;28;20473;-83
2023/08/15 11:45:43;;;;;;;3.30;3.00;;;;;;;;;;5085812;28;20501;-83
2023/08/15 11:48:09;;;;;;;3.92;2.80;;;;;;;;;;5098738;28;20378;-83
2023/08/15 11:50:35;;;;;;;3.35;2.63;;;;;;;;;;5099881;28;20382;-84
2023/08/15 11:53:09;;;;;;;3.40;2.60;;;;;;;;;;5101103;28;20382;-83
2023/08/15 11:55:36;;;;;;;3.20;2.55;;;;;;;;;;5096229;28;20415;-83
2023/08/15 11:58:02;;;;;;;3.65;2.78;;;;;;;;;;5090969;28;20394;-83
2023/08/15 12:00:28;;;;;;;5.07;2.97;;;;;;;;;;5068210;28;20479;-83
2023/08/15 12:02:55;;;;;;;5.18;2.58;;;;;;;;;;5099387;28;20386;-83
2023/08/15 12:05:21;;;;;;;6.15;2.75;;;;;;;;;;5086022;28;20807;-83
2023/08/15 12:07:48;;;;;;;3.75;2.78;;;;;;;;;;5079585;28;20395;-83
2023/08/15 12:10:15;;;;;;;2.97;2.67;;;;;;;;;;5092315;28;20376;-83
2023/08/15 12:12:45;;;;;;;4.30;2.50;;;;;;;;;;5099469;28;20382;-83
2023/08/15 12:15:11;;;;;;;3.33;2.58;;;;;;;;;;5088418;28;20466;-83
2023/08/15 12:17:38;;;;;;;4.00;2.80;;;;;;;;;;5084882;28;20471;-83
2023/08/15 12:20:05;;;;;;;3.13;2.58;;;;;;;;;;5080295;28;20384;-83
2023/08/15 12:22:31;;;;;;;4.18;3.08;;;;;;;;;;5086051;28;20391;-84
2023/08/15 12:24:57;;;;;;;3.78;2.75;;;;;;;;;;5082950;28;20415;-83
2023/08/15 12:27:23;;;;;;;4.15;2.55;;;;;;;;;;5082412;28;20394;-83
2023/08/15 12:29:49;;;;;;;3.22;2.58;;;;;;;;;;5091462;28;20371;-83
2023/08/15 12:32:15;;;;;;;4.88;2.70;;;;;;;;;;5091084;28;20379;-83
2023/08/15 12:34:42;;;;;;;5.45;2.70;;;;;;;;;;5093657;28;20374;-83
2023/08/15 12:37:08;;;;;;;4.80;2.78;;;;;;;;;;5085826;28;20388;-84
2023/08/15 12:39:34;;;;;;;4.25;2.50;;;;;;;;;;5085760;28;20380;-83
2023/08/15 12:42:01;;;;;;;3.53;2.38;;;;;;;;;;5083142;28;20378;-83
2023/08/15 12:44:28;;;;;;;4.10;2.58;;;;;;;;;;5084608;28;20386;-83
2023/08/15 12:46:54;;;;;;;7.53;3.10;;;;;;;;;;5076100;28;20484;-83
2023/08/15 12:49:20;;;;;;;3.33;2.58;;;;;;;;;;5079607;28;20879;-83
2023/08/15 12:51:46;;;;;;;5.95;2.63;;;;;;;;;;5089973;28;20418;-84
2023/08/15 12:54:12;;;;;;;4.03;2.60;;;;;;;;;;5074762;28;20493;-84
2023/08/15 12:56:38;;;;;;;4.60;2.78;;;;;;;;;;5072007;28;20393;-84
2023/08/15 12:59:04;;;;;;;4.75;3.10;;;;;;;;;;5083019;28;20386;-84
2023/08/15 13:01:30;;;;;;;3.80;2.50;;;;;;;;;;5096952;28;20382;-84
2023/08/15 13:03:56;;;;;;;3.40;2.60;;;;;;;;;;5095114;28;20835;-84
2023/08/15 13:06:22;;;;;;;4.40;2.60;;;;;;;;;;5079656;28;20411;-84
2023/08/15 13:08:48;;;;;;;4.50;3.03;;;;;;;;;;5077875;28;20415;-84
2023/08/15 13:11:15;;;;;;;3.80;2.60;;;;;;;;;;5085384;28;20386;-84
2023/08/15 13:13:41;;;;;;;2.95;2.75;;;;;;;;;;5096097;28;20378;-84
2023/08/15 13:16:09;;;;;;;4.50;2.53;;;;;;;;;;5082962;28;20458;-84
2023/08/15 13:18:35;;;;;;;4.68;2.38;;;;;;;;;;5076481;28;20466;-83
2023/08/15 13:21:01;;;;;;;4.88;2.60;;;;;;;;;;5076703;28;20533;-84
2023/08/15 13:23:27;;;;;;;3.83;2.50;;;;;;;;;;5076634;28;20897;-84
2023/08/15 13:25:53;;;;;;;3.35;2.45;;;;;;;;;;5078814;28;20414;-84
2023/08/15 13:28:19;;;;;;;3.93;2.37;;;;;;;;;;5082348;28;20391;-84
2023/08/15 13:30:46;;;;;;;3.15;2.33;;;;;;;;;;5088574;28;20420;-84
2023/08/15 13:33:13;;;;;;;2.80;2.08;;;;;;;;;;5089584;28;20476;-84
2023/08/15 13:35:39;;;;;;;4.50;2.10;;;;;;;;;;5092654;28;20420;-84
2023/08/15 13:38:05;;;;;;;4.45;2.45;;;;;;;;;;5087865;28;20387;-84
2023/08/15 13:40:31;;;;;;;2.75;2.22;;;;;;;;;;5078413;28;20434;-83
2023/08/15 13:42:58;;;;;;;2.88;2.30;;;;;;;;;;5075779;28;20417;-83
2023/08/15 13:45:25;;;;;;;5.75;2.35;;;;;;;;;;5075822;28;20906;-84
2023/08/15 13:47:51;;;;;;;2.95;2.30;;;;;;;;;;5076295;28;20398;-84
2023/08/15 13:50:17;;;;;;;2.53;2.10;;;;;;;;;;5076380;28;20395;-84
2023/08/15 13:52:43;;;;;;;4.90;2.58;;;;;;;;;;5076138;28;20955;-84
2023/08/15 13:55:12;;;;;;;2.88;2.38;;;;;;;;;;5075847;28;20395;-84
2023/08/15 13:57:38;;;;;;;4.57;2.25;;;;;;;;;;5077345;28;20406;-84
2023/08/15 14:00:06;;;;;;;4.95;2.53;;;;;;;;;;5082860;28;20464;-84
2023/08/15 14:02:32;;;;;;;4.20;2.30;;;;;;;;;;5081855;28;20380;-84
2023/08/15 14:04:58;;;;;;;4.10;2.30;;;;;;;;;;5060466;28;20418;-85
2023/08/15 14:07:24;;;;;;;3.05;2.28;;;;;;;;;;5078284;28;20508;-84
2023/08/15 14:09:50;;;;;;;4.07;2.28;;;;;;;;;;5076860;28;20469;-84
2023/08/15 14:12:16;;;;;;;4.30;2.45;;;;;;;;;;5078630;28;20753;-84
2023/08/15 14:14:42;;;;;;;4.43;2.42;;;;;;;;;;5076370;28;20387;-84
2023/08/15 14:17:08;;;;;;;3.97;2.38;;;;;;;;;;5086421;28;20380;-84
2023/08/15 14:19:34;;;;;;;3.15;2.30;;;;;;;;;;5081663;28;20737;-84
2023/08/15 14:22:00;;;;;;;3.25;2.42;;;;;;;;;;5082038;28;20383;-84
2023/08/15 14:24:26;;;;;;;4.03;2.40;;;;;;;;;;5085879;28;20736;-84
2023/08/15 14:26:52;;;;;;;3.50;2.30;;;;;;;;;;5084643;28;20423;-84
2023/08/15 14:29:18;;;;;;;3.78;2.45;;;;;;;;;;5082774;28;20784;-84
2023/08/15 14:31:44;;;;;;;3.22;2.60;;;;;;;;;;5087320;28;20432;-84
2023/08/15 14:34:10;;;;;;;3.15;2.25;;;;;;;;;;5090042;28;20718;-84
2023/08/15 14:36:36;;;;;;;6.03;2.55;;;;;;;;;;5082940;28;20388;-84
2023/08/15 14:39:02;;;;;;;2.50;2.10;;;;;;;;;;5091687;28;20417;-85
2023/08/15 14:41:31;;;;;;;3.08;2.15;;;;;;;;;;5078884;28;20433;-84